Time;durP1;ratioP1;P1;durP2;ratioP2;P2;SDS_P1;SDS_P2;PMS_P1;PMS_P2;Temp;Humidity;BMP_temperature;BMP_pressure;BME280_temperature;BME280_humidity;BME280_pressure;Samples;Min_cycle;Max_cycle;Signal;HPM_P1;HPM_P2
2021/08/25 00:01:58;;;;;;;23.80;19.43;;;15.00;96.30;;;;;;5052008;28;20045;-71
2021/08/25 00:04:23;;;;;;;22.17;19.20;;;15.00;96.30;;;;;;5051069;28;20063;-71
2021/08/25 00:06:49;;;;;;;21.73;17.63;;;15.00;96.40;;;;;;5051600;28;20052;-71
2021/08/25 00:09:15;;;;;;;21.27;17.67;;;14.90;96.30;;;;;;5051851;28;20041;-71
2021/08/25 00:11:40;;;;;;;20.27;16.47;;;15.00;96.40;;;;;;5051076;28;20072;-71
2021/08/25 00:14:06;;;;;;;22.83;17.23;;;14.90;96.30;;;;;;5051896;28;20049;-70
2021/08/25 00:16:31;;;;;;;20.80;16.10;;;14.90;96.20;;;;;;5050455;28;20045;-70
2021/08/25 00:18:57;;;;;;;20.13;15.73;;;14.90;96.20;;;;;;5050672;28;20124;-71
2021/08/25 00:21:23;;;;;;;21.87;17.40;;;14.80;96.10;;;;;;5051455;28;20138;-71
2021/08/25 00:23:48;;;;;;;20.83;17.37;;;14.80;96.10;;;;;;5051454;28;20156;-70
2021/08/25 00:26:14;;;;;;;18.40;16.20;;;14.70;96.10;;;;;;5049818;28;20079;-70
2021/08/25 00:28:39;;;;;;;21.63;17.03;;;14.70;96.10;;;;;;5051628;28;20075;-71
2021/08/25 00:31:05;;;;;;;19.27;15.60;;;14.70;96.00;;;;;;5050443;28;20053;-71
2021/08/25 00:33:30;;;;;;;18.60;15.53;;;14.60;96.00;;;;;;5050774;28;20409;-71
2021/08/25 00:35:56;;;;;;;21.40;15.97;;;14.60;96.00;;;;;;5051219;28;20037;-71
2021/08/25 00:38:21;;;;;;;20.47;17.53;;;14.60;96.00;;;;;;5051996;28;20052;-71
2021/08/25 00:40:47;;;;;;;22.43;18.27;;;14.50;96.00;;;;;;5050574;28;20132;-70
2021/08/25 00:43:13;;;;;;;24.20;21.57;;;14.50;96.00;;;;;;5050146;28;20041;-70
2021/08/25 00:45:39;;;;;;;24.53;19.07;;;14.40;96.10;;;;;;5051320;28;20238;-70
2021/08/25 00:48:06;;;;;;;26.27;21.90;;;14.40;96.20;;;;;;5050617;28;20037;-70
2021/08/25 00:50:32;;;;;;;23.77;21.23;;;14.40;96.30;;;;;;5051246;28;20088;-71
2021/08/25 00:52:58;;;;;;;24.00;20.50;;;14.40;96.40;;;;;;5051390;28;20509;-71
2021/08/25 00:55:24;;;;;;;22.53;20.10;;;14.40;96.50;;;;;;5049350;28;20121;-71
2021/08/25 00:57:49;;;;;;;21.17;18.40;;;14.40;96.50;;;;;;5050075;28;20120;-71
2021/08/25 01:00:16;;;;;;;21.73;18.80;;;14.40;96.50;;;;;;5050306;28;20067;-71
2021/08/25 01:02:52;;;;;;;17.00;14.27;;;14.40;96.60;;;;;;5051276;28;20474;-71
2021/08/25 01:05:18;;;;;;;19.47;16.70;;;14.40;96.50;;;;;;5051273;28;20073;-71
2021/08/25 01:07:45;;;;;;;21.10;18.30;;;14.40;96.50;;;;;;5049830;28;20045;-71
2021/08/25 01:10:32;;;;;;;19.93;17.80;;;14.30;96.40;;;;;;5049568;28;20123;-71
2021/08/25 01:13:02;;;;;;;19.27;17.20;;;14.30;96.30;;;;;;5050554;28;20406;-71
2021/08/25 01:15:39;;;;;;;23.20;20.80;;;14.30;96.40;;;;;;5050919;28;20060;-71
2021/08/25 01:18:16;;;;;;;24.07;21.47;;;14.30;96.40;;;;;;5051102;28;20049;-71
2021/08/25 01:20:47;;;;;;;21.93;19.40;;;14.20;96.50;;;;;;5049378;28;20067;-71
2021/08/25 01:23:14;;;;;;;22.95;20.42;;;14.10;96.60;;;;;;5048928;28;20120;-71
2021/08/25 01:25:41;;;;;;;25.13;22.40;;;14.10;96.70;;;;;;5049205;28;20057;-72
2021/08/25 01:28:09;;;;;;;26.83;21.10;;;14.10;96.90;;;;;;5053510;28;20112;-71
2021/08/25 01:30:40;;;;;;;21.70;19.50;;;14.10;97.00;;;;;;5054069;28;20044;-71
2021/08/25 01:33:06;;;;;;;20.50;18.33;;;14.10;97.00;;;;;;5054657;28;20036;-71
2021/08/25 01:35:38;;;;;;;20.93;18.73;;;14.10;97.00;;;;;;5052832;28;20099;-71
2021/08/25 01:38:21;;;;;;;20.90;18.63;;;14.00;96.90;;;;;;5053667;28;20052;-71
2021/08/25 01:40:47;;;;;;;21.97;19.33;;;14.10;97.00;;;;;;5053077;28;20140;-71
2021/08/25 01:43:12;;;;;;;21.23;19.00;;;14.10;96.90;;;;;;5053612;28;20131;-71
2021/08/25 01:45:38;;;;;;;23.60;21.00;;;14.00;96.90;;;;;;5052932;28;20077;-71
2021/08/25 01:48:04;;;;;;;21.10;18.97;;;13.90;97.00;;;;;;5054183;28;20048;-71
2021/08/25 01:50:29;;;;;;;23.23;20.23;;;13.90;97.10;;;;;;5053425;28;20099;-71
2021/08/25 01:52:55;;;;;;;24.73;20.23;;;13.90;97.30;;;;;;5053002;28;20457;-71
2021/08/25 01:55:21;;;;;;;25.80;19.37;;;13.90;97.30;;;;;;5054131;28;20102;-71
2021/08/25 01:57:46;;;;;;;21.03;17.63;;;13.90;97.40;;;;;;5052896;28;20047;-71
2021/08/25 02:00:12;;;;;;;25.60;18.03;;;13.90;97.50;;;;;;5053812;28;20053;-71
2021/08/25 02:02:38;;;;;;;22.57;18.50;;;13.90;97.50;;;;;;5053993;28;20045;-71
2021/08/25 02:05:04;;;;;;;23.20;18.40;;;13.80;97.50;;;;;;5052936;28;20450;-71
2021/08/25 02:07:29;;;;;;;34.10;19.90;;;13.80;97.50;;;;;;5053940;28;20044;-71
2021/08/25 02:09:55;;;;;;;27.87;18.57;;;13.80;97.60;;;;;;5052341;28;20183;-71
2021/08/25 02:12:20;;;;;;;37.77;19.20;;;13.80;97.60;;;;;;5051631;28;20045;-71
2021/08/25 02:14:46;;;;;;;60.30;19.83;;;13.80;97.70;;;;;;5053592;28;20048;-71
2021/08/25 02:17:12;;;;;;;62.30;19.27;;;13.80;97.80;;;;;;5052761;28;20453;-71
2021/08/25 02:19:38;;;;;;;74.77;18.97;;;13.80;97.80;;;;;;5052567;28;20146;-71
2021/08/25 02:22:04;;;;;;;72.77;17.97;;;13.80;97.80;;;;;;5053910;28;20490;-71
2021/08/25 02:24:30;;;;;;;121.90;19.10;;;13.80;97.90;;;;;;5053254;28;20041;-70
2021/08/25 02:26:56;;;;;;;179.57;24.83;;;13.80;98.00;;;;;;5053138;28;20106;-71
2021/08/25 02:29:21;;;;;;;236.93;26.43;;;13.80;98.10;;;;;;5053815;28;20052;-71
2021/08/25 02:31:47;;;;;;;110.73;21.87;;;13.90;98.20;;;;;;5051233;28;20086;-71
2021/08/25 02:34:14;;;;;;;91.63;21.40;;;13.80;98.20;;;;;;5053669;28;20045;-71
2021/08/25 02:36:39;;;;;;;67.87;18.33;;;13.80;98.30;;;;;;5053722;28;20041;-71
2021/08/25 02:39:05;;;;;;;164.17;26.47;;;13.70;98.40;;;;;;5052306;28;20072;-71
2021/08/25 02:41:30;;;;;;;107.03;19.60;;;13.70;98.50;;;;;;5053349;28;20049;-71
2021/08/25 02:43:56;;;;;;;149.40;23.90;;;13.70;98.60;;;;;;5052013;28;20053;-71
2021/08/25 02:46:21;;;;;;;150.97;23.37;;;13.70;98.60;;;;;;5051370;28;20049;-71
2021/08/25 02:48:48;;;;;;;193.67;23.93;;;13.70;98.60;;;;;;5052918;28;20041;-71
2021/08/25 02:51:14;;;;;;;55.17;19.93;;;13.70;98.70;;;;;;5051794;28;20063;-71
2021/08/25 02:53:39;;;;;;;124.97;23.17;;;13.80;98.80;;;;;;5052092;28;20053;-71
2021/08/25 02:56:05;;;;;;;142.07;23.43;;;13.80;98.80;;;;;;5053135;28;20048;-71
2021/08/25 02:58:30;;;;;;;58.67;17.07;;;13.80;98.80;;;;;;5052939;28;20139;-71
2021/08/25 03:00:56;;;;;;;58.30;18.53;;;13.70;98.80;;;;;;5050559;28;20052;-71
2021/08/25 03:03:21;;;;;;;90.47;20.33;;;13.80;98.80;;;;;;5051181;28;20053;-71
2021/08/25 03:05:47;;;;;;;123.97;23.80;;;13.70;98.80;;;;;;5052723;28;20112;-71
2021/08/25 03:08:13;;;;;;;105.70;23.03;;;13.70;98.80;;;;;;5052325;28;20412;-71
2021/08/25 03:10:39;;;;;;;103.37;21.40;;;13.70;98.90;;;;;;5052224;28;20043;-71
2021/08/25 03:13:04;;;;;;;53.80;19.60;;;13.70;98.90;;;;;;5053144;28;20084;-71
2021/08/25 03:15:30;;;;;;;128.00;22.03;;;13.70;98.90;;;;;;5051880;28;20064;-71
2021/08/25 03:17:56;;;;;;;65.37;20.37;;;13.70;98.90;;;;;;5053059;28;20132;-71
2021/08/25 03:20:22;;;;;;;57.83;19.50;;;13.70;98.90;;;;;;5051056;28;20048;-71
2021/08/25 03:22:47;;;;;;;61.07;18.00;;;13.70;99.00;;;;;;5051426;28;20064;-71
2021/08/25 03:25:13;;;;;;;80.07;21.90;;;13.70;99.00;;;;;;5052215;28;20045;-71
2021/08/25 03:27:38;;;;;;;30.53;18.30;;;13.60;99.00;;;;;;5052248;28;20057;-72
2021/08/25 03:30:06;;;;;;;33.40;19.70;;;13.60;99.00;;;;;;5051785;28;20045;-71
2021/08/25 03:32:31;;;;;;;57.43;22.00;;;13.60;99.00;;;;;;5050870;28;20060;-71
2021/08/25 03:34:57;;;;;;;63.47;21.40;;;13.60;99.00;;;;;;5051466;28;20041;-71
2021/08/25 03:37:23;;;;;;;21.87;18.67;;;13.70;99.00;;;;;;5052296;28;20071;-71
2021/08/25 03:39:48;;;;;;;63.13;20.50;;;13.70;98.90;;;;;;5051690;28;20056;-71
2021/08/25 03:42:14;;;;;;;25.57;19.93;;;13.70;98.90;;;;;;5050452;28;20051;-71
2021/08/25 03:44:39;;;;;;;22.07;19.67;;;13.70;98.90;;;;;;5051957;28;20141;-71
2021/08/25 03:47:06;;;;;;;27.07;19.57;;;13.70;98.90;;;;;;5052221;28;20056;-71
2021/08/25 03:49:34;;;;;;;19.03;16.93;;;13.70;98.90;;;;;;5050899;28;20493;-71
2021/08/25 03:51:59;;;;;;;18.93;16.93;;;13.70;98.90;;;;;;5051697;28;20424;-71
2021/08/25 03:54:27;;;;;;;20.83;18.23;;;13.70;98.80;;;;;;5051986;28;20094;-71
2021/08/25 03:56:53;;;;;;;15.37;13.80;;;13.70;98.80;;;;;;5049768;28;20074;-71
2021/08/25 03:59:19;;;;;;;17.60;15.90;;;13.70;98.90;;;;;;5050756;28;20059;-71
2021/08/25 04:01:44;;;;;;;22.47;18.30;;;13.70;98.90;;;;;;5051554;28;20116;-71
2021/08/25 04:04:10;;;;;;;21.30;18.23;;;13.70;98.90;;;;;;5051295;28;20033;-71
2021/08/25 04:06:36;;;;;;;17.73;15.83;;;13.70;98.90;;;;;;5051342;28;20044;-71
2021/08/25 04:09:03;;;;;;;17.90;16.07;;;13.70;98.90;;;;;;5049653;28;20053;-71
2021/08/25 04:11:28;;;;;;;18.43;15.13;;;13.70;98.90;;;;;;5050903;28;20048;-71
2021/08/25 04:13:54;;;;;;;19.03;16.60;;;13.70;98.80;;;;;;5051100;28;20037;-71
2021/08/25 04:16:19;;;;;;;19.40;16.13;;;13.70;98.80;;;;;;5051902;28;20049;-71
2021/08/25 04:18:45;;;;;;;20.97;17.17;;;13.70;98.90;;;;;;5050623;28;20041;-71
2021/08/25 04:21:11;;;;;;;18.60;16.73;;;13.70;98.90;;;;;;5051809;28;20095;-71
2021/08/25 04:23:36;;;;;;;16.10;14.40;;;13.70;98.90;;;;;;5051400;28;20234;-71
2021/08/25 04:26:02;;;;;;;18.27;16.03;;;13.70;98.90;;;;;;5050497;28;20407;-71
2021/08/25 04:28:27;;;;;;;23.43;17.43;;;13.70;98.90;;;;;;5051769;28;20048;-71
2021/08/25 04:30:53;;;;;;;20.67;16.53;;;13.70;98.90;;;;;;5049812;28;20040;-71
2021/08/25 04:33:19;;;;;;;13.13;11.63;;;13.70;98.90;;;;;;5049922;28;20041;-71
2021/08/25 04:35:44;;;;;;;15.67;13.97;;;13.80;98.80;;;;;;5051466;28;20049;-71
2021/08/25 04:38:10;;;;;;;19.30;16.20;;;13.70;98.80;;;;;;5050928;28;20429;-71
2021/08/25 04:40:35;;;;;;;16.53;14.27;;;13.70;98.80;;;;;;5050279;28;20371;-71
2021/08/25 04:43:01;;;;;;;16.77;15.07;;;13.70;98.80;;;;;;5049272;28;20106;-71
2021/08/25 04:45:27;;;;;;;13.80;12.40;;;13.70;98.70;;;;;;5049959;28;20179;-71
2021/08/25 04:47:53;;;;;;;17.27;14.10;;;13.70;98.70;;;;;;5051044;28;20580;-71
2021/08/25 04:50:18;;;;;;;17.60;14.87;;;13.70;98.60;;;;;;5051333;28;20164;-71
2021/08/25 04:52:44;;;;;;;14.07;12.50;;;13.70;98.60;;;;;;5048807;28;20057;-71
2021/08/25 04:55:10;;;;;;;11.83;9.67;;;13.60;98.50;;;;;;5050341;28;20446;-71
2021/08/25 04:57:35;;;;;;;10.50;9.50;;;13.60;98.50;;;;;;5051739;28;20037;-71
2021/08/25 05:00:02;;;;;;;10.80;9.70;;;13.60;98.50;;;;;;5050270;28;20124;-71
2021/08/25 05:02:27;;;;;;;11.60;10.47;;;13.60;98.50;;;;;;5051259;28;20486;-71
2021/08/25 05:04:53;;;;;;;11.10;9.60;;;13.50;98.40;;;;;;5054850;28;20098;-71
2021/08/25 05:07:20;;;;;;;12.67;11.00;;;13.50;98.40;;;;;;5053201;28;20044;-71
2021/08/25 05:09:46;;;;;;;13.00;11.70;;;13.50;98.30;;;;;;5055147;28;20080;-71
2021/08/25 05:12:12;;;;;;;11.43;10.23;;;13.50;98.40;;;;;;5053747;28;20052;-71
2021/08/25 05:14:37;;;;;;;11.63;10.53;;;13.50;98.40;;;;;;5054571;28;20045;-71
2021/08/25 05:17:03;;;;;;;10.97;9.97;;;13.50;98.30;;;;;;5054747;28;20405;-71
2021/08/25 05:19:28;;;;;;;12.00;10.80;;;13.50;98.30;;;;;;5054402;28;20139;-72
2021/08/25 05:21:54;;;;;;;12.00;10.83;;;13.50;98.30;;;;;;5054018;28;20049;-71
2021/08/25 05:24:20;;;;;;;12.13;10.37;;;13.50;98.30;;;;;;5053624;28;20041;-71
2021/08/25 05:26:47;;;;;;;10.53;9.53;;;13.50;98.40;;;;;;5054404;28;20048;-71
2021/08/25 05:29:12;;;;;;;11.47;10.27;;;13.50;98.40;;;;;;5052950;28;20045;-71
2021/08/25 05:31:38;;;;;;;11.83;10.30;;;13.50;98.40;;;;;;5054583;28;20481;-71
2021/08/25 05:34:04;;;;;;;11.20;9.83;;;13.50;98.40;;;;;;5054448;28;20132;-72
2021/08/25 05:36:29;;;;;;;11.07;9.97;;;13.60;98.50;;;;;;5053679;28;20055;-71
2021/08/25 05:38:55;;;;;;;12.60;10.80;;;13.60;98.50;;;;;;5052799;28;20505;-71
2021/08/25 05:41:20;;;;;;;12.83;11.30;;;13.60;98.50;;;;;;5054152;28;20103;-71
2021/08/25 05:43:46;;;;;;;12.57;10.63;;;13.60;98.60;;;;;;5053120;28;20048;-71
2021/08/25 05:46:11;;;;;;;13.17;11.37;;;13.70;98.70;;;;;;5054183;28;20127;-71
2021/08/25 05:48:37;;;;;;;13.03;11.70;;;13.70;98.70;;;;;;5053288;28;20068;-71
2021/08/25 05:51:03;;;;;;;12.20;10.93;;;13.80;98.80;;;;;;5054545;28;20418;-71
2021/08/25 05:53:28;;;;;;;14.00;12.60;;;13.80;98.80;;;;;;5052597;28;20098;-71
2021/08/25 05:55:54;;;;;;;12.90;11.20;;;13.80;98.80;;;;;;5051995;28;20071;-71
2021/08/25 05:58:20;;;;;;;11.57;10.47;;;13.90;98.90;;;;;;5053041;28;20057;-72
2021/08/25 06:00:46;;;;;;;12.97;11.70;;;14.00;98.90;;;;;;5053786;28;20470;-72
2021/08/25 06:03:11;;;;;;;12.13;10.93;;;14.00;99.00;;;;;;5051722;28;20086;-71
2021/08/25 06:05:37;;;;;;;9.47;8.10;;;14.00;98.90;;;;;;5053712;28;20156;-71
2021/08/25 06:08:04;;;;;;;12.73;11.43;;;14.10;99.00;;;;;;5053264;28;20040;-71
2021/08/25 06:10:29;;;;;;;12.17;10.83;;;14.10;99.00;;;;;;5053254;28;20091;-71
2021/08/25 06:12:55;;;;;;;12.20;10.90;;;14.20;99.00;;;;;;5053210;28;20390;-71
2021/08/25 06:15:21;;;;;;;11.63;10.53;;;14.20;99.00;;;;;;5052234;28;20044;-71
2021/08/25 06:17:47;;;;;;;13.00;11.20;;;14.30;99.10;;;;;;5051434;28;20052;-71
2021/08/25 06:20:13;;;;;;;12.47;10.90;;;14.30;99.00;;;;;;5053543;28;20414;-72
2021/08/25 06:22:38;;;;;;;11.20;9.90;;;14.40;99.00;;;;;;5053250;28;20064;-71
2021/08/25 06:25:04;;;;;;;10.53;9.53;;;14.40;99.00;;;;;;5052662;28;20406;-71
2021/08/25 06:27:30;;;;;;;11.37;9.83;;;14.40;99.30;;;;;;5053511;28;20043;-71
2021/08/25 06:29:56;;;;;;;11.40;10.13;;;14.50;99.00;;;;;;5052017;28;20494;-71
2021/08/25 06:32:21;;;;;;;11.83;10.03;;;14.50;99.00;;;;;;5052757;28;20155;-71
2021/08/25 06:34:47;;;;;;;12.67;9.20;;;14.50;99.00;;;;;;5052743;28;20505;-72
2021/08/25 06:37:12;;;;;;;12.77;10.40;;;14.50;99.00;;;;;;5051804;28;20390;-71
2021/08/25 06:39:38;;;;;;;10.37;9.37;;;14.60;99.10;;;;;;5052224;28;20076;-71
2021/08/25 06:42:04;;;;;;;9.57;8.20;;;14.60;99.10;;;;;;5052963;28;20049;-71
2021/08/25 06:44:29;;;;;;;14.67;9.53;;;14.70;99.10;;;;;;5052857;28;20052;-72
2021/08/25 06:46:55;;;;;;;10.53;8.57;;;14.70;99.10;;;;;;5051928;28;20053;-72
2021/08/25 06:49:20;;;;;;;8.93;8.00;;;14.80;99.00;;;;;;5051879;28;20056;-72
2021/08/25 06:51:47;;;;;;;10.30;7.97;;;14.90;99.00;;;;;;5052591;28;20040;-72
2021/08/25 06:54:12;;;;;;;9.97;7.90;;;15.00;99.00;;;;;;5051513;28;20120;-71
2021/08/25 06:56:38;;;;;;;9.50;7.17;;;15.10;99.00;;;;;;5051618;28;20561;-72
2021/08/25 06:59:04;;;;;;;8.60;7.43;;;15.20;98.90;;;;;;5052073;28;20147;-72
2021/08/25 07:01:30;;;;;;;9.60;7.03;;;15.20;98.90;;;;;;5051714;28;20128;-71
2021/08/25 07:03:55;;;;;;;9.83;7.67;;;15.30;98.80;;;;;;5052532;28;20041;-72
2021/08/25 07:06:21;;;;;;;10.30;6.53;;;15.40;98.70;;;;;;5052208;28;20481;-72
2021/08/25 07:08:47;;;;;;;8.20;7.40;;;15.50;98.60;;;;;;5052223;28;20044;-72
2021/08/25 07:11:13;;;;;;;9.60;7.40;;;15.60;98.50;;;;;;5052542;28;20044;-72
2021/08/25 07:13:39;;;;;;;11.20;7.37;;;15.60;98.40;;;;;;5051417;28;20045;-71
2021/08/25 07:16:07;;;;;;;8.67;6.93;;;15.70;98.20;;;;;;5051726;28;20045;-70
2021/08/25 07:18:33;;;;;;;8.40;6.40;;;15.80;98.00;;;;;;5052204;28;20417;-70
2021/08/25 07:20:58;;;;;;;11.80;6.67;;;15.80;97.80;;;;;;5050602;28;20118;-71
2021/08/25 07:23:24;;;;;;;8.40;7.33;;;15.90;97.60;;;;;;5034154;28;20044;-71
2021/08/25 07:25:50;;;;;;;11.27;6.83;;;15.90;97.60;;;;;;5050707;28;20412;-71
2021/08/25 07:28:15;;;;;;;11.60;7.37;;;16.00;97.50;;;;;;5050186;28;20069;-71
2021/08/25 07:30:41;;;;;;;8.00;7.20;;;16.10;97.40;;;;;;5039554;28;20049;-74
2021/08/25 07:33:12;;;;;;;10.00;6.53;;;16.10;97.30;;;;;;5047870;28;20115;-72
2021/08/25 07:35:38;;;;;;;10.45;5.63;;;16.10;97.30;;;;;;5047854;28;20083;-71
2021/08/25 07:38:04;;;;;;;9.27;5.97;;;16.20;97.10;;;;;;5047922;28;20178;-71
2021/08/25 07:40:29;;;;;;;7.03;3.83;;;16.30;96.90;;;;;;5046516;28;20147;-71
2021/08/25 07:42:55;;;;;;;10.93;4.10;;;16.30;96.60;;;;;;5047093;28;20045;-70
2021/08/25 07:45:20;;;;;;;7.17;3.43;;;16.40;96.30;;;;;;5038792;28;20101;-72
2021/08/25 07:47:46;;;;;;;8.07;3.80;;;16.40;96.60;;;;;;5032277;28;20502;-70
2021/08/25 07:50:13;;;;;;;7.30;4.47;;;16.50;96.10;;;;;;5027166;28;20041;-71
2021/08/25 07:52:38;;;;;;;6.10;4.53;;;16.50;95.90;;;;;;5028055;28;20416;-72
2021/08/25 07:55:04;;;;;;;6.53;3.50;;;16.60;95.70;;;;;;5026812;28;20049;-72
2021/08/25 07:57:30;;;;;;;7.80;3.57;;;16.60;95.50;;;;;;5033158;28;20504;-70
2021/08/25 07:59:55;;;;;;;4.97;2.53;;;16.70;95.30;;;;;;5038532;28;20124;-70
2021/08/25 08:02:21;;;;;;;6.87;2.57;;;16.70;95.10;;;;;;5038049;28;20037;-69
2021/08/25 08:04:46;;;;;;;4.93;2.70;;;16.80;94.90;;;;;;5037615;28;20040;-70
2021/08/25 08:07:12;;;;;;;4.60;1.90;;;16.90;94.80;;;;;;5037499;28;20042;-69
2021/08/25 08:09:39;;;;;;;6.07;2.10;;;17.00;94.60;;;;;;5036202;28;21413;-69
2021/08/25 08:12:05;;;;;;;2.87;1.20;;;17.10;94.20;;;;;;5035915;28;20165;-70
2021/08/25 08:14:30;;;;;;;5.10;1.47;;;17.20;93.70;;;;;;5040197;28;20155;-70
2021/08/25 08:16:59;;;;;;;4.03;1.87;;;17.20;93.30;;;;;;5034375;28;20063;-70
2021/08/25 08:19:33;;;;;;;3.00;1.30;;;17.30;93.30;;;;;;5036897;28;20514;-69
2021/08/25 08:22:01;;;;;;;4.03;1.40;;;17.40;93.10;;;;;;5034531;28;20081;-71
2021/08/25 08:24:28;;;;;;;5.67;1.60;;;17.50;92.80;;;;;;5033318;28;20045;-71
2021/08/25 08:26:54;;;;;;;5.37;2.13;;;17.60;92.60;;;;;;5038090;28;20378;-71
2021/08/25 08:29:20;;;;;;;4.67;1.63;;;17.70;92.10;;;;;;5036680;28;20056;-71
2021/08/25 08:31:46;;;;;;;2.93;1.63;;;17.80;92.00;;;;;;5035334;28;20056;-71
2021/08/25 08:34:12;;;;;;;5.33;1.90;;;18.00;92.00;;;;;;5037309;28;20424;-71
2021/08/25 08:36:37;;;;;;;4.43;1.97;;;18.10;91.70;;;;;;5040190;28;20052;-72
2021/08/25 08:39:04;;;;;;;3.97;1.70;;;18.20;91.30;;;;;;5039173;28;20057;-71
2021/08/25 08:41:29;;;;;;;4.90;2.33;;;18.50;91.40;;;;;;5040605;28;20095;-71
2021/08/25 08:43:56;;;;;;;5.50;1.53;;;18.80;90.70;;;;;;5046872;28;20506;-71
2021/08/25 08:46:24;;;;;;;3.60;1.87;;;19.00;90.30;;;;;;5050117;28;20076;-73
2021/08/25 08:48:51;;;;;;;4.97;1.97;;;18.90;89.50;;;;;;5050968;28;20048;-72
2021/08/25 08:51:21;;;;;;;4.50;2.07;;;18.80;89.60;;;;;;5051876;28;20106;-70
2021/08/25 08:53:48;;;;;;;5.50;1.77;;;18.60;90.00;;;;;;5050224;28;20076;-73
2021/08/25 08:56:14;;;;;;;3.63;1.70;;;18.60;90.00;;;;;;5050477;28;20051;-73
2021/08/25 08:58:41;;;;;;;2.73;1.70;;;18.50;89.60;;;;;;5050063;28;20127;-70
2021/08/25 09:01:07;;;;;;;4.83;1.70;;;18.40;89.80;;;;;;5051174;28;20041;-69
2021/08/25 09:03:36;;;;;;;4.07;1.70;;;18.30;90.10;;;;;;5050358;28;20133;-72
2021/08/25 09:06:04;;;;;;;2.87;1.07;;;18.30;90.30;;;;;;5050128;28;20123;-70
2021/08/25 09:08:31;;;;;;;3.40;1.20;;;18.30;90.10;;;;;;5049803;28;20076;-70
2021/08/25 09:11:11;;;;;;;3.37;0.90;;;18.40;90.10;;;;;;5050490;28;20029;-69
2021/08/25 09:13:48;;;;;;;1.70;0.80;;;18.50;88.70;;;;;;5049583;28;20110;-68
2021/08/25 09:16:28;;;;;;;0.63;0.40;;;18.60;87.80;;;;;;5048416;28;20044;-71
2021/08/25 09:19:14;;;;;;;0.80;0.40;;;18.70;85.90;;;;;;5049704;28;20099;-68
2021/08/25 09:21:51;;;;;;;1.13;0.60;;;18.60;84.10;;;;;;5048512;28;20049;-70
2021/08/25 09:24:39;;;;;;;2.30;0.50;;;18.60;84.50;;;;;;5049804;28;20068;-69
2021/08/25 09:27:10;;;;;;;0.93;0.30;;;18.70;84.50;;;;;;5049557;28;20045;-69
2021/08/25 09:29:38;;;;;;;2.45;0.60;;;18.90;84.20;;;;;;5050483;28;20383;-71
2021/08/25 09:32:19;;;;;;;0.70;0.30;;;19.00;83.10;;;;;;5050284;28;20092;-69
2021/08/25 09:34:45;;;;;;;1.00;0.50;;;18.90;81.60;;;;;;5049498;28;20631;-69
2021/08/25 09:37:20;;;;;;;1.10;0.37;;;18.90;82.70;;;;;;5049988;28;20060;-69
2021/08/25 09:39:51;;;;;;;1.63;0.53;;;19.00;82.40;;;;;;5050292;28;20501;-70
2021/08/25 09:42:18;;;;;;;2.85;0.50;;;19.00;83.10;;;;;;5048539;28;20102;-69
2021/08/25 09:44:59;;;;;;;1.10;0.47;;;18.90;83.30;;;;;;5050314;28;20519;-70
2021/08/25 09:47:45;;;;;;;1.48;0.45;;;18.80;82.80;;;;;;5048715;28;20079;-70
2021/08/25 09:50:15;;;;;;;3.27;0.87;;;18.70;82.40;;;;;;5049799;28;20053;-70
2021/08/25 09:52:40;;;;;;;3.17;0.60;;;18.70;84.00;;;;;;5049679;28;20132;-69
2021/08/25 09:55:06;;;;;;;2.57;0.40;;;18.60;83.10;;;;;;5053132;28;20124;-70
2021/08/25 09:57:43;;;;;;;2.33;0.50;;;18.50;83.30;;;;;;5052284;28;20041;-70
2021/08/25 10:00:10;;;;;;;1.43;0.50;;;18.50;84.20;;;;;;5051633;28;20075;-68
2021/08/25 10:02:36;;;;;;;1.43;0.60;;;18.70;83.90;;;;;;5047510;28;20505;-68
2021/08/25 10:05:03;;;;;;;1.67;0.50;;;18.70;83.10;;;;;;5039159;28;20038;-68
2021/08/25 10:07:28;;;;;;;2.13;0.50;;;18.80;82.80;;;;;;5037010;28;20075;-66
2021/08/25 10:09:54;;;;;;;1.27;0.50;;;18.70;82.70;;;;;;5041758;28;20468;-67
2021/08/25 10:12:20;;;;;;;0.63;0.50;;;18.60;82.80;;;;;;5042200;28;20103;-68
2021/08/25 10:14:46;;;;;;;2.00;0.50;;;18.60;82.80;;;;;;5041185;28;20050;-67
2021/08/25 10:17:39;;;;;;;1.43;0.20;;;18.50;82.90;;;;;;5042487;28;20067;-68
2021/08/25 10:20:23;;;;;;;1.10;0.50;;;18.40;83.20;;;;;;5043420;28;20060;-67
2021/08/25 10:22:49;;;;;;;0.93;0.23;;;18.40;84.00;;;;;;5035106;28;20053;-69
2021/08/25 10:25:15;;;;;;;0.67;0.50;;;18.40;84.30;;;;;;5042660;28;20057;-70
2021/08/25 10:28:00;;;;;;;2.43;0.53;;;18.40;84.00;;;;;;5043366;28;20045;-69
2021/08/25 10:30:26;;;;;;;0.60;0.40;;;18.50;84.30;;;;;;5036873;28;20475;-68
2021/08/25 10:32:51;;;;;;;0.57;0.47;;;18.60;84.60;;;;;;5052839;28;20040;-69
2021/08/25 10:35:22;;;;;;;1.70;0.60;;;18.80;83.50;;;;;;5053195;28;20045;-70
2021/08/25 10:37:50;;;;;;;2.13;0.60;;;18.90;82.80;;;;;;5050004;28;20092;-69
2021/08/25 10:40:18;;;;;;;1.30;0.47;;;19.10;82.80;;;;;;5049365;28;20053;-70
2021/08/25 10:42:45;;;;;;;1.30;0.60;;;19.20;82.00;;;;;;5050609;28;20049;-70
2021/08/25 10:45:11;;;;;;;1.60;0.50;;;19.30;81.60;;;;;;5050124;28;20110;-69
2021/08/25 10:47:57;;;;;;;0.97;0.60;;;19.30;82.00;;;;;;5049210;28;20045;-69
2021/08/25 10:50:23;;;;;;;0.97;0.50;;;19.30;81.50;;;;;;5049785;28;20059;-67
2021/08/25 10:52:48;;;;;;;3.70;0.50;;;19.30;82.20;;;;;;5050023;28;20490;-67
2021/08/25 10:55:14;;;;;;;0.80;0.33;;;19.20;81.80;;;;;;5052850;28;20048;-70
2021/08/25 10:57:44;;;;;;;0.67;0.47;;;19.10;81.90;;;;;;5051715;28;20056;-68
2021/08/25 11:00:11;;;;;;;1.63;0.60;;;19.10;81.60;;;;;;5052090;28;20445;-69
2021/08/25 11:02:38;;;;;;;1.83;0.50;;;19.00;81.70;;;;;;5052816;28;20171;-69
2021/08/25 11:05:05;;;;;;;1.60;0.50;;;19.00;81.80;;;;;;5050946;28;20082;-68
2021/08/25 11:07:30;;;;;;;0.60;0.40;;;19.00;81.80;;;;;;5052077;28;20131;-66
2021/08/25 11:09:56;;;;;;;0.40;0.40;;;19.00;81.80;;;;;;5052395;28;20127;-68
2021/08/25 11:12:23;;;;;;;4.10;0.47;;;19.10;82.30;;;;;;5051598;28;20514;-67
2021/08/25 11:14:54;;;;;;;1.50;0.40;;;19.10;82.20;;;;;;5050749;28;20049;-67
2021/08/25 11:17:30;;;;;;;0.83;0.40;;;19.00;81.90;;;;;;5052354;28;20052;-68
2021/08/25 11:20:00;;;;;;;1.27;0.43;;;19.00;81.80;;;;;;5049683;28;20131;-67
2021/08/25 11:22:27;;;;;;;1.03;0.30;;;19.00;82.00;;;;;;5050733;28;20060;-67
2021/08/25 11:24:57;;;;;;;1.00;0.43;;;19.00;82.00;;;;;;5050687;28;20045;-67
2021/08/25 11:27:26;;;;;;;2.33;0.55;;;19.00;81.40;;;;;;5051306;28;20053;-67
2021/08/25 11:30:31;;;;;;;1.57;0.50;;;19.10;81.30;;;;;;5050593;28;20457;-68
2021/08/25 11:33:09;;;;;;;1.53;0.77;;;19.20;80.60;;;;;;5013655;28;20057;-69
2021/08/25 11:35:39;;;;;;;0.80;0.20;;;19.10;81.10;;;;;;5029869;28;20072;-69
2021/08/25 11:38:17;;;;;;;0.77;0.43;;;19.10;81.10;;;;;;5033953;28;20068;-68
2021/08/25 11:40:47;;;;;;;0.57;0.40;;;19.20;80.70;;;;;;5049381;28;20422;-68
2021/08/25 11:43:18;;;;;;;1.53;0.30;;;19.30;79.80;;;;;;5052302;28;20064;-68
2021/08/25 11:45:48;;;;;;;0.75;0.20;;;19.30;79.10;;;;;;5051743;28;20490;-68
2021/08/25 11:48:14;;;;;;;1.13;0.40;;;19.30;78.80;;;;;;5050318;28;20041;-68
2021/08/25 11:50:45;;;;;;;0.67;0.40;;;19.30;78.90;;;;;;5050137;28;20401;-69
2021/08/25 11:53:15;;;;;;;;;;;19.10;78.80;;;;;;5052095;28;20072;-69
2021/08/25 11:55:41;;;;;;;1.00;0.30;;;19.00;79.10;;;;;;5050878;28;19943;-68
2021/08/25 11:58:20;;;;;;;0.97;0.40;;;18.90;80.10;;;;;;5051787;28;20037;-68
2021/08/25 12:00:45;;;;;;;2.37;0.50;;;18.80;80.60;;;;;;5050016;28;20556;-69
2021/08/25 12:03:11;;;;;;;1.80;0.70;;;18.80;81.40;;;;;;5049838;28;20109;-68
2021/08/25 12:05:50;;;;;;;2.37;0.70;;;18.70;82.00;;;;;;5051469;28;20080;-68
2021/08/25 12:08:16;;;;;;;2.53;0.93;;;18.50;82.80;;;;;;5050067;28;20059;-69
2021/08/25 12:10:45;;;;;;;2.40;0.60;;;18.40;83.70;;;;;;5050560;28;20045;-69
2021/08/25 12:13:30;;;;;;;3.93;0.90;;;18.30;84.20;;;;;;5051352;28;20393;-69
2021/08/25 12:15:57;;;;;;;2.00;0.60;;;18.20;84.20;;;;;;5050460;28;20486;-68
2021/08/25 12:18:25;;;;;;;3.60;0.57;;;18.10;84.30;;;;;;5050375;28;20051;-68
2021/08/25 12:20:53;;;;;;;2.33;0.73;;;18.10;84.20;;;;;;5050998;28;20111;-69
2021/08/25 12:23:25;;;;;;;5.47;1.10;;;18.10;84.30;;;;;;5050331;28;20127;-69
2021/08/25 12:25:51;;;;;;;;;;;18.20;84.30;;;;;;5051596;28;20080;-69
2021/08/25 12:28:33;;;;;;;3.03;0.60;;;18.20;84.90;;;;;;5049967;28;20006;-68
2021/08/25 12:31:16;;;;;;;1.20;0.50;;;18.30;83.70;;;;;;5050271;28;20143;-69
2021/08/25 12:33:44;;;;;;;2.17;0.40;;;18.30;82.90;;;;;;5050335;28;20044;-69
2021/08/25 12:36:24;;;;;;;0.80;0.40;;;18.40;82.90;;;;;;5051437;28;20033;-68
2021/08/25 12:38:54;;;;;;;1.07;0.50;;;18.40;82.30;;;;;;5050455;28;20446;-68